Time;durP1;ratioP1;P1;durP2;ratioP2;P2;SDS_P1;SDS_P2;PMS_P1;PMS_P2;Temp;Humidity;BMP_temperature;BMP_pressure;BME280_temperature;BME280_humidity;BME280_pressure;Samples;Min_cycle;Max_cycle;Signal;HPM_P1;HPM_P2
2023/07/05 00:01:31;;;;;;;9.98;4.63;;;15.00;99.90;;;;;;5109820;28;20067;-64
2023/07/05 00:03:57;;;;;;;11.15;4.60;;;15.00;99.90;;;;;;5118702;27;20035;-64
2023/07/05 00:06:23;;;;;;;8.75;4.40;;;15.00;99.90;;;;;;5117093;27;20034;-64
2023/07/05 00:08:49;;;;;;;9.25;4.82;;;15.00;99.90;;;;;;5119765;27;20030;-64
2023/07/05 00:11:15;;;;;;;8.10;4.55;;;15.00;99.90;;;;;;5118269;27;20079;-63
2023/07/05 00:13:41;;;;;;;7.90;4.80;;;15.00;99.90;;;;;;5130216;27;20054;-63
2023/07/05 00:16:09;;;;;;;9.35;4.78;;;15.00;99.90;;;;;;5133289;27;20041;-65
2023/07/05 00:18:36;;;;;;;9.25;4.32;;;15.00;99.90;;;;;;5133950;27;20501;-64
2023/07/05 00:21:04;;;;;;;7.70;4.40;;;15.00;99.90;;;;;;5131561;27;20046;-64
2023/07/05 00:23:32;;;;;;;6.93;4.20;;;15.00;99.90;;;;;;5117666;27;20042;-63
2023/07/05 00:25:58;;;;;;;8.80;4.30;;;15.00;99.90;;;;;;5125208;27;20088;-64
2023/07/05 00:28:24;;;;;;;9.15;4.47;;;15.00;99.90;;;;;;5120357;27;20423;-64
2023/07/05 00:30:50;;;;;;;9.73;4.60;;;15.00;99.90;;;;;;5119715;27;20072;-63
2023/07/05 00:33:16;;;;;;;8.48;5.03;;;15.00;99.90;;;;;;5096484;27;20047;-63
2023/07/05 00:35:49;;;;;;;7.65;4.70;;;15.00;99.90;;;;;;5129766;27;20046;-64
2023/07/05 00:38:16;;;;;;;8.73;4.90;;;15.00;99.90;;;;;;5133206;27;20035;-63
2023/07/05 00:40:41;;;;;;;9.77;5.28;;;15.00;99.90;;;;;;5132780;27;20047;-63
2023/07/05 00:43:08;;;;;;;10.35;5.38;;;15.00;99.90;;;;;;5125452;27;20118;-64
2023/07/05 00:45:43;;;;;;;11.65;5.10;;;15.00;99.90;;;;;;5148198;27;20042;-64
2023/07/05 00:48:14;;;;;;;8.20;5.35;;;15.00;99.90;;;;;;5124365;27;20042;-64
2023/07/05 00:50:45;;;;;;;12.15;5.78;;;15.00;99.90;;;;;;5133293;27;20035;-64
2023/07/05 00:53:11;;;;;;;10.73;5.25;;;15.00;99.90;;;;;;5115428;27;20043;-64
2023/07/05 00:55:39;;;;;;;10.20;5.75;;;15.00;99.90;;;;;;5123273;27;20043;-64
2023/07/05 00:58:05;;;;;;;11.65;5.65;;;15.00;99.90;;;;;;5145760;27;20450;-63
2023/07/05 01:00:31;;;;;;;13.35;5.97;;;15.00;99.90;;;;;;5148562;27;20136;-64
2023/07/05 01:03:03;;;;;;;10.85;6.53;;;14.90;99.90;;;;;;5113314;27;20033;-64
2023/07/05 01:05:29;;;;;;;11.45;6.50;;;15.00;99.90;;;;;;5114950;27;20050;-63
2023/07/05 01:07:55;;;;;;;10.75;6.45;;;14.90;99.90;;;;;;5128592;27;20520;-64
2023/07/05 01:10:22;;;;;;;17.20;7.55;;;14.90;99.90;;;;;;5133060;27;20043;-64
2023/07/05 01:12:57;;;;;;;12.85;6.88;;;14.90;99.90;;;;;;5121003;27;20107;-64
2023/07/05 01:15:46;;;;;;;12.93;6.70;;;14.80;99.90;;;;;;5122206;27;20043;-65
2023/07/05 01:18:27;;;;;;;11.68;7.45;;;14.80;99.90;;;;;;5129716;27;20406;-63
2023/07/05 01:21:02;;;;;;;15.23;7.15;;;14.80;99.90;;;;;;5122217;27;20538;-63
2023/07/05 01:24:16;;;;;;;12.57;7.13;;;14.80;99.90;;;;;;5109813;27;20051;-65
2023/07/05 01:27:05;;;;;;;11.02;7.20;;;14.70;99.90;;;;;;5111983;27;20079;-65
2023/07/05 01:29:49;;;;;;;12.30;7.28;;;14.70;99.90;;;;;;5140102;27;20449;-64
2023/07/05 01:32:17;;;;;;;13.43;7.50;;;14.70;99.90;;;;;;5121668;27;20088;-65
2023/07/05 01:35:10;;;;;;;13.63;7.30;;;14.60;99.90;;;;;;5121972;27;20430;-64
2023/07/05 01:37:37;;;;;;;;;;;14.60;99.90;;;;;;5120616;27;20054;-65
2023/07/05 01:40:15;;;;;;;11.68;7.15;;;14.60;99.90;;;;;;5118346;27;19977;-64
2023/07/05 01:42:43;;;;;;;12.60;7.57;;;14.60;99.90;;;;;;5117653;27;20031;-63
2023/07/05 01:45:09;;;;;;;12.02;8.10;;;14.60;99.90;;;;;;5136692;27;20537;-64
2023/07/05 01:48:22;;;;;;;11.48;8.00;;;14.60;99.90;;;;;;5137296;27;20100;-64
2023/07/05 01:50:58;;;;;;;12.00;7.78;;;14.60;99.90;;;;;;5034100;28;20049;-64
2023/07/05 01:53:35;;;;;;;13.32;8.10;;;14.60;99.90;;;;;;5034146;28;20045;-64
2023/07/05 01:56:24;;;;;;;13.85;7.90;;;14.50;99.90;;;;;;5025626;28;20045;-65
2023/07/05 01:58:54;;;;;;;14.73;8.13;;;14.60;99.90;;;;;;5040686;28;20591;-64
2023/07/05 02:01:23;;;;;;;13.30;8.65;;;14.50;99.90;;;;;;5032356;28;20045;-64
2023/07/05 02:03:49;;;;;;;13.90;8.55;;;14.60;99.90;;;;;;5024119;28;20091;-63
2023/07/05 02:06:19;;;;;;;13.68;8.57;;;14.50;99.90;;;;;;5014015;28;20057;-64
2023/07/05 02:08:49;;;;;;;11.93;8.65;;;14.50;99.90;;;;;;5033335;28;20085;-64
2023/07/05 02:11:15;;;;;;;12.73;8.25;;;14.50;99.90;;;;;;5033802;28;20052;-64
2023/07/05 02:13:41;;;;;;;18.85;9.75;;;14.40;99.90;;;;;;5030922;28;20049;-63
2023/07/05 02:16:07;;;;;;;14.40;8.95;;;14.40;99.90;;;;;;5019576;28;20121;-63
2023/07/05 02:18:32;;;;;;;14.88;9.02;;;14.40;99.90;;;;;;5025284;28;20506;-64
2023/07/05 02:20:58;;;;;;;15.43;8.80;;;14.40;99.90;;;;;;5026991;28;20103;-64
2023/07/05 02:23:24;;;;;;;12.48;9.07;;;14.40;99.90;;;;;;5034133;27;20049;-64
2023/07/05 02:25:50;;;;;;;11.88;8.32;;;14.40;99.90;;;;;;5131478;27;20076;-65
2023/07/05 02:28:16;;;;;;;14.55;8.57;;;14.40;99.90;;;;;;5136097;27;20524;-63
2023/07/05 02:30:42;;;;;;;17.50;9.57;;;14.40;99.90;;;;;;5135737;27;20172;-64
2023/07/05 02:33:08;;;;;;;16.80;9.30;;;14.30;99.90;;;;;;5148357;27;20027;-64
2023/07/05 02:35:35;;;;;;;15.43;9.95;;;14.30;99.90;;;;;;5133614;27;20043;-64
2023/07/05 02:38:01;;;;;;;15.40;9.30;;;14.30;99.90;;;;;;5113287;27;20038;-64
2023/07/05 02:40:26;;;;;;;14.40;9.88;;;14.30;99.90;;;;;;5123792;27;20505;-64
2023/07/05 02:42:52;;;;;;;15.57;10.68;;;14.30;99.90;;;;;;5143779;27;20466;-64
2023/07/05 02:45:18;;;;;;;16.65;10.45;;;14.30;99.90;;;;;;5121409;27;20126;-63
2023/07/05 02:47:43;;;;;;;14.00;10.13;;;14.30;99.90;;;;;;5122992;27;20113;-63
2023/07/05 02:50:09;;;;;;;14.48;10.13;;;14.30;99.90;;;;;;5129997;27;20066;-63
2023/07/05 02:52:35;;;;;;;13.10;10.63;;;14.30;99.90;;;;;;5121918;27;20043;-64
2023/07/05 02:55:00;;;;;;;14.65;10.65;;;14.30;99.90;;;;;;5120295;27;20048;-64
2023/07/05 02:57:26;;;;;;;24.23;10.95;;;14.30;99.90;;;;;;5133759;27;20038;-65
2023/07/05 02:59:52;;;;;;;14.80;10.23;;;14.30;99.90;;;;;;5135474;27;20500;-64
2023/07/05 03:02:17;;;;;;;14.30;10.35;;;14.30;99.90;;;;;;5127182;27;20042;-63
2023/07/05 03:04:43;;;;;;;15.00;10.95;;;14.40;99.90;;;;;;5120401;27;20054;-64
2023/07/05 03:07:08;;;;;;;16.63;10.75;;;14.30;99.90;;;;;;5130114;27;20050;-64
2023/07/05 03:09:34;;;;;;;14.20;11.20;;;14.30;99.90;;;;;;5125096;27;20042;-63
2023/07/05 03:12:00;;;;;;;16.17;11.10;;;14.40;99.90;;;;;;5146707;27;20394;-64
2023/07/05 03:14:25;;;;;;;14.85;10.93;;;14.30;99.90;;;;;;5120431;27;20057;-63
2023/07/05 03:16:51;;;;;;;16.23;11.18;;;14.40;99.90;;;;;;5122445;27;20050;-64
2023/07/05 03:19:17;;;;;;;14.32;10.95;;;14.40;99.90;;;;;;5117521;27;20031;-63
2023/07/05 03:21:43;;;;;;;13.10;11.00;;;14.40;99.90;;;;;;5129614;27;20031;-64
2023/07/05 03:24:09;;;;;;;16.38;11.35;;;14.40;99.90;;;;;;5117477;27;20481;-64
2023/07/05 03:26:34;;;;;;;14.18;11.05;;;14.40;99.90;;;;;;5138893;27;20042;-63
2023/07/05 03:29:05;;;;;;;14.00;10.23;;;14.40;99.90;;;;;;5122538;27;20047;-64
2023/07/05 03:31:30;;;;;;;15.32;10.95;;;14.50;99.90;;;;;;5121957;27;20031;-63
2023/07/05 03:33:56;;;;;;;13.63;10.90;;;14.60;99.90;;;;;;5145087;27;20038;-64
2023/07/05 03:36:22;;;;;;;14.57;11.35;;;14.60;99.90;;;;;;5119074;27;20038;-63
2023/07/05 03:38:51;;;;;;;14.73;11.50;;;14.60;99.90;;;;;;5153474;27;20125;-64
2023/07/05 03:41:26;;;;;;;14.65;10.40;;;14.60;99.90;;;;;;5130997;27;20114;-63
2023/07/05 03:43:58;;;;;;;12.18;10.18;;;14.70;99.90;;;;;;5121000;27;20042;-64
2023/07/05 03:46:24;;;;;;;15.40;11.10;;;14.70;99.90;;;;;;5147149;27;20106;-63
2023/07/05 03:48:50;;;;;;;15.27;11.48;;;14.70;99.90;;;;;;5135221;27;20159;-64
2023/07/05 03:51:19;;;;;;;11.10;9.93;;;14.80;99.90;;;;;;5133618;27;20140;-63
2023/07/05 03:53:49;;;;;;;14.48;10.88;;;14.80;99.90;;;;;;5126045;27;20064;-63
2023/07/05 03:56:16;;;;;;;13.60;10.45;;;14.80;99.90;;;;;;5151909;27;20046;-64
2023/07/05 03:58:42;;;;;;;14.57;10.63;;;14.90;99.90;;;;;;5120889;27;20083;-63
2023/07/05 04:01:14;;;;;;;12.18;8.68;;;14.90;99.90;;;;;;5127714;27;20455;-64
2023/07/05 04:03:56;;;;;;;12.18;8.63;;;14.90;99.90;;;;;;5143104;27;20344;-63
2023/07/05 04:06:23;;;;;;;11.35;7.80;;;14.90;99.90;;;;;;5125754;27;20528;-63
2023/07/05 04:08:49;;;;;;;9.60;7.53;;;14.90;99.90;;;;;;5114710;27;20047;-64
2023/07/05 04:11:15;;;;;;;10.75;6.63;;;14.90;99.90;;;;;;5140457;27;20034;-63
2023/07/05 04:13:41;;;;;;;11.52;6.20;;;14.90;99.90;;;;;;5129110;27;20043;-64
2023/07/05 04:16:14;;;;;;;7.60;5.45;;;14.90;99.90;;;;;;5116282;27;20096;-64
2023/07/05 04:18:43;;;;;;;7.65;4.72;;;14.80;99.90;;;;;;5120793;27;20041;-63
2023/07/05 04:21:09;;;;;;;6.10;3.90;;;14.80;99.90;;;;;;5123877;27;20508;-63
2023/07/05 04:23:36;;;;;;;6.68;4.10;;;14.80;99.90;;;;;;5134306;27;20058;-63
2023/07/05 04:26:10;;;;;;;5.90;3.70;;;14.70;99.90;;;;;;5120556;27;20509;-63
2023/07/05 04:28:38;;;;;;;7.63;3.22;;;14.70;99.90;;;;;;5121118;27;20043;-64
2023/07/05 04:31:05;;;;;;;5.82;3.50;;;14.60;99.90;;;;;;5135465;27;20071;-64
2023/07/05 04:33:31;;;;;;;7.07;3.47;;;14.60;99.90;;;;;;5134275;27;20031;-63
2023/07/05 04:35:58;;;;;;;4.88;3.40;;;14.50;99.90;;;;;;5148178;27;20515;-63
2023/07/05 04:38:25;;;;;;;6.90;3.70;;;14.50;99.90;;;;;;5140154;27;20037;-63
2023/07/05 04:40:51;;;;;;;4.82;3.70;;;14.40;99.90;;;;;;5143362;27;20105;-63
2023/07/05 04:43:17;;;;;;;5.75;3.97;;;14.30;99.90;;;;;;5117622;27;20069;-63
2023/07/05 04:45:54;;;;;;;5.85;3.90;;;14.20;99.90;;;;;;5132764;27;20078;-63
2023/07/05 04:48:20;;;;;;;7.78;4.13;;;14.10;99.90;;;;;;5115477;27;20081;-63
2023/07/05 04:50:52;;;;;;;4.60;4.07;;;14.10;99.90;;;;;;5124045;27;20152;-64
2023/07/05 04:53:19;;;;;;;6.60;3.72;;;14.00;99.90;;;;;;5130744;27;20446;-64
2023/07/05 04:55:53;;;;;;;6.30;3.80;;;14.00;99.90;;;;;;5130018;27;20051;-63
2023/07/05 04:58:22;;;;;;;4.93;3.80;;;14.00;99.90;;;;;;5145483;27;20358;-64
2023/07/05 05:00:49;;;;;;;5.47;3.83;;;14.00;99.90;;;;;;5125384;27;20482;-64
2023/07/05 05:03:22;;;;;;;5.35;3.83;;;14.00;99.90;;;;;;5123962;27;20046;-63
2023/07/05 05:05:51;;;;;;;5.13;4.00;;;14.00;99.90;;;;;;5127112;27;20034;-63
2023/07/05 05:08:19;;;;;;;6.32;4.07;;;14.00;99.90;;;;;;5133250;27;20121;-63
2023/07/05 05:10:48;;;;;;;6.82;4.05;;;14.00;99.90;;;;;;5113274;27;20373;-63
2023/07/05 05:13:14;;;;;;;4.70;3.70;;;14.00;99.90;;;;;;5127972;27;20046;-64
2023/07/05 05:15:41;;;;;;;6.00;4.20;;;14.00;99.90;;;;;;5140006;27;20050;-64
2023/07/05 05:18:08;;;;;;;6.13;3.83;;;14.00;99.90;;;;;;5112036;27;20114;-65
2023/07/05 05:20:37;;;;;;;6.65;3.83;;;14.00;99.90;;;;;;5123485;27;20430;-64
2023/07/05 05:23:03;;;;;;;4.88;3.38;;;14.00;99.90;;;;;;5140070;27;20113;-64
2023/07/05 05:25:28;;;;;;;4.70;3.70;;;14.10;99.90;;;;;;5112074;27;20130;-64
2023/07/05 05:27:54;;;;;;;6.25;3.63;;;14.10;99.90;;;;;;5122269;27;20038;-62
2023/07/05 05:30:20;;;;;;;4.78;3.58;;;14.10;99.90;;;;;;5132657;27;20114;-63
2023/07/05 05:32:46;;;;;;;4.50;3.45;;;14.10;99.90;;;;;;5132819;27;20060;-64
2023/07/05 05:35:13;;;;;;;6.85;3.33;;;14.10;99.90;;;;;;5129199;27;20038;-63
2023/07/05 05:37:39;;;;;;;3.67;2.95;;;14.10;99.90;;;;;;5120638;27;20039;-64
2023/07/05 05:40:06;;;;;;;6.20;3.75;;;14.10;99.90;;;;;;5111625;27;20481;-63
2023/07/05 05:42:32;;;;;;;3.97;3.10;;;14.10;99.90;;;;;;5124215;27;20042;-64
2023/07/05 05:44:58;;;;;;;4.75;3.20;;;14.10;99.90;;;;;;5137045;27;20035;-64
2023/07/05 05:47:23;;;;;;;4.45;2.92;;;14.10;99.90;;;;;;5139837;27;20090;-63
2023/07/05 05:49:49;;;;;;;5.22;3.50;;;14.10;99.90;;;;;;5125638;27;20039;-63
2023/07/05 05:52:15;;;;;;;6.28;3.63;;;14.10;99.90;;;;;;5113197;27;20180;-63
2023/07/05 05:54:40;;;;;;;6.40;3.63;;;14.20;99.90;;;;;;5111568;27;20047;-63
2023/07/05 05:57:06;;;;;;;5.00;3.08;;;14.20;99.90;;;;;;5113112;27;20047;-63
2023/07/05 05:59:32;;;;;;;5.30;2.95;;;14.20;99.90;;;;;;5135584;27;20085;-63
2023/07/05 06:01:57;;;;;;;5.38;3.60;;;14.30;99.90;;;;;;5126844;27;20419;-63
2023/07/05 06:04:23;;;;;;;5.75;3.63;;;14.30;99.90;;;;;;5131177;27;20039;-63
2023/07/05 06:06:49;;;;;;;5.85;3.70;;;14.40;99.90;;;;;;5126328;27;20046;-64
2023/07/05 06:09:14;;;;;;;6.22;3.88;;;14.70;99.90;;;;;;5132156;27;20122;-64
2023/07/05 06:11:41;;;;;;;6.43;3.72;;;15.00;99.90;;;;;;5129640;27;20052;-63
2023/07/05 06:14:08;;;;;;;4.97;3.17;;;15.20;99.90;;;;;;5123326;27;20483;-64
2023/07/05 06:16:34;;;;;;;6.32;3.17;;;15.40;99.90;;;;;;5141620;27;20076;-63
2023/07/05 06:18:59;;;;;;;4.80;3.38;;;15.40;99.90;;;;;;5127159;27;20028;-62
2023/07/05 06:21:25;;;;;;;6.45;3.55;;;15.40;99.90;;;;;;5118794;27;20047;-63
2023/07/05 06:23:51;;;;;;;6.22;3.10;;;15.30;99.90;;;;;;5114942;27;20427;-63
2023/07/05 06:26:18;;;;;;;4.85;3.38;;;15.30;99.90;;;;;;5150935;27;20046;-63
2023/07/05 06:28:45;;;;;;;4.60;3.20;;;15.20;99.90;;;;;;5150122;27;20030;-63
2023/07/05 06:31:11;;;;;;;5.50;3.30;;;15.10;99.90;;;;;;5114791;27;20080;-62
2023/07/05 06:33:38;;;;;;;4.68;3.00;;;15.00;99.90;;;;;;5106295;27;20043;-63
2023/07/05 06:36:05;;;;;;;5.75;3.22;;;14.90;99.90;;;;;;5120892;27;20482;-63
2023/07/05 06:38:31;;;;;;;4.03;2.70;;;14.80;99.90;;;;;;5132071;27;20035;-63
2023/07/05 06:40:57;;;;;;;5.65;2.95;;;14.80;99.90;;;;;;5138048;27;20374;-63
2023/07/05 06:43:23;;;;;;;5.18;2.97;;;14.80;99.90;;;;;;5135427;27;20038;-63
2023/07/05 06:45:54;;;;;;;5.45;3.05;;;14.90;99.90;;;;;;5132478;27;20126;-63
2023/07/05 06:48:21;;;;;;;4.43;2.75;;;14.80;99.90;;;;;;5130373;27;20118;-63
2023/07/05 06:50:51;;;;;;;5.47;3.28;;;14.80;99.90;;;;;;5117668;27;20087;-63
2023/07/05 06:53:17;;;;;;;4.53;2.90;;;14.80;99.90;;;;;;5139535;27;20519;-62
2023/07/05 06:55:43;;;;;;;4.95;2.55;;;14.70;99.90;;;;;;5135424;27;20031;-63
2023/07/05 06:58:08;;;;;;;6.28;2.80;;;14.70;99.90;;;;;;5135398;27;20050;-62
2023/07/05 07:00:34;;;;;;;3.53;2.60;;;14.70;99.90;;;;;;5154125;27;20049;-64
2023/07/05 07:03:00;;;;;;;4.25;2.72;;;14.70;99.90;;;;;;5132139;27;20082;-63
2023/07/05 07:05:26;;;;;;;6.72;3.15;;;14.80;99.90;;;;;;5123242;27;20460;-63
2023/07/05 07:07:51;;;;;;;5.97;2.53;;;14.80;99.90;;;;;;5120325;27;20053;-63
2023/07/05 07:10:17;;;;;;;3.80;2.40;;;14.80;99.90;;;;;;5148899;27;20118;-63
2023/07/05 07:12:43;;;;;;;4.88;2.38;;;14.60;99.90;;;;;;5143090;27;20377;-63
2023/07/05 07:15:09;;;;;;;4.25;2.70;;;14.50;99.90;;;;;;5144044;27;20046;-63
2023/07/05 07:17:34;;;;;;;2.97;2.58;;;14.30;99.90;;;;;;5145037;27;20123;-63
2023/07/05 07:20:00;;;;;;;4.25;3.28;;;14.20;99.90;;;;;;5146206;27;20402;-64
2023/07/05 07:22:25;;;;;;;4.80;3.00;;;14.10;99.90;;;;;;5144984;27;20031;-64
2023/07/05 07:24:51;;;;;;;4.20;2.60;;;14.00;99.90;;;;;;5145093;27;20039;-63
2023/07/05 07:27:18;;;;;;;4.50;2.63;;;13.90;99.90;;;;;;5141630;27;20035;-63
2023/07/05 07:29:45;;;;;;;2.67;1.83;;;13.70;99.90;;;;;;5102237;27;20039;-63
2023/07/05 07:32:10;;;;;;;3.20;1.55;;;13.60;99.90;;;;;;5125983;27;20035;-63
2023/07/05 07:34:36;;;;;;;3.13;1.30;;;13.40;99.90;;;;;;5124747;27;20091;-62
2023/07/05 07:37:02;;;;;;;1.73;1.05;;;13.20;99.90;;;;;;5120974;27;20435;-64
2023/07/05 07:39:29;;;;;;;3.92;1.20;;;13.00;99.90;;;;;;5121042;27;20549;-62
2023/07/05 07:41:55;;;;;;;2.58;1.10;;;12.80;99.90;;;;;;5117206;27;20039;-63
2023/07/05 07:44:21;;;;;;;3.08;1.65;;;12.70;99.90;;;;;;5113581;27;20087;-63
2023/07/05 07:46:47;;;;;;;7.13;1.20;;;12.60;99.90;;;;;;5118301;27;20047;-65
2023/07/05 07:49:13;;;;;;;2.33;0.98;;;12.50;99.90;;;;;;5131727;27;20117;-63
2023/07/05 07:51:44;;;;;;;1.75;0.90;;;12.40;99.90;;;;;;5115663;27;20047;-63
2023/07/05 07:54:18;;;;;;;2.15;0.77;;;12.40;99.90;;;;;;5129421;27;20103;-63
2023/07/05 07:56:46;;;;;;;3.28;0.90;;;12.30;99.90;;;;;;5113813;27;20051;-63
2023/07/05 07:59:13;;;;;;;2.22;0.82;;;12.30;99.90;;;;;;5119463;27;20641;-63
2023/07/05 08:01:39;;;;;;;2.83;1.10;;;12.30;99.90;;;;;;5124852;27;20043;-63
2023/07/05 08:04:07;;;;;;;2.58;0.88;;;12.20;99.90;;;;;;5123643;27;20039;-63
2023/07/05 08:06:48;;;;;;;2.78;0.70;;;12.20;99.90;;;;;;5118560;27;20043;-63
2023/07/05 08:09:22;;;;;;;3.22;0.60;;;12.20;99.90;;;;;;5123995;27;20050;-64
2023/07/05 08:11:48;;;;;;;0.88;0.65;;;12.10;99.90;;;;;;5134319;27;20529;-64
2023/07/05 08:14:17;;;;;;;1.30;0.73;;;12.10;99.90;;;;;;5123253;27;20059;-63
2023/07/05 08:16:42;;;;;;;2.42;0.82;;;12.10;99.90;;;;;;5130191;27;20092;-63
2023/07/05 08:19:09;;;;;;;1.80;0.60;;;12.10;99.90;;;;;;5128268;27;20035;-64
2023/07/05 08:21:36;;;;;;;1.38;0.65;;;12.10;99.90;;;;;;5130658;27;20079;-63
2023/07/05 08:24:02;;;;;;;2.55;1.00;;;12.10;99.90;;;;;;5107905;27;20141;-63
2023/07/05 08:26:29;;;;;;;5.57;1.00;;;12.10;99.90;;;;;;5122337;27;20061;-63
2023/07/05 08:28:56;;;;;;;1.88;0.70;;;12.10;99.90;;;;;;5138058;27;20117;-62
2023/07/05 08:31:22;;;;;;;3.05;0.80;;;12.00;99.90;;;;;;5133502;27;20058;-62
2023/07/05 08:33:47;;;;;;;4.03;0.95;;;12.00;99.90;;;;;;5138486;27;20038;-63
2023/07/05 08:36:33;;;;;;;2.92;0.80;;;11.90;99.90;;;;;;5127368;27;20038;-63
2023/07/05 08:39:02;;;;;;;2.80;0.93;;;11.90;99.90;;;;;;5095402;27;20043;-63
2023/07/05 08:41:40;;;;;;;2.20;0.80;;;11.90;99.90;;;;;;5121749;27;20049;-63
2023/07/05 08:44:23;;;;;;;1.90;0.95;;;11.80;99.90;;;;;;5132016;27;20035;-62
2023/07/05 08:46:59;;;;;;;2.92;1.25;;;11.80;99.90;;;;;;5138414;27;20051;-63
2023/07/05 08:49:38;;;;;;;5.90;1.85;;;11.80;99.90;;;;;;5131284;27;20072;-63
2023/07/05 08:52:05;;;;;;;5.53;1.35;;;11.80;99.90;;;;;;5125874;27;20533;-63
2023/07/05 08:54:34;;;;;;;4.50;1.10;;;11.80;99.90;;;;;;5127520;27;20079;-63
2023/07/05 08:57:19;;;;;;;6.65;1.40;;;11.80;99.90;;;;;;5097221;27;20157;-62
2023/07/05 08:59:57;;;;;;;5.82;1.40;;;11.80;99.90;;;;;;5114066;27;20039;-62
2023/07/05 09:02:23;;;;;;;4.32;1.67;;;11.80;99.90;;;;;;5115660;27;20161;-63
2023/07/05 09:04:49;;;;;;;6.32;1.50;;;11.80;99.90;;;;;;5119944;27;20401;-63
2023/07/05 09:07:33;;;;;;;6.15;1.35;;;11.80;99.90;;;;;;5131909;27;20129;-63
2023/07/05 09:10:12;;;;;;;11.07;2.50;;;11.80;99.90;;;;;;5124884;27;20038;-64
2023/07/05 09:12:50;;;;;;;8.48;2.47;;;11.80;99.90;;;;;;5139473;27;20051;-62
2023/07/05 09:15:41;;;;;;;9.90;2.25;;;11.90;99.90;;;;;;5116467;27;20548;-63
2023/07/05 09:18:27;;;;;;;9.25;2.45;;;11.90;99.90;;;;;;5116126;27;20138;-63
2023/07/05 09:21:31;;;;;;;11.10;2.40;;;11.90;99.90;;;;;;5116765;27;20141;-63
2023/07/05 09:24:08;;;;;;;11.85;2.72;;;11.80;99.90;;;;;;5013025;28;20074;-63
2023/07/05 09:26:37;;;;;;;10.98;2.35;;;11.80;99.90;;;;;;5030563;28;20128;-63
2023/07/05 09:29:10;;;;;;;14.32;2.90;;;11.80;99.90;;;;;;5030382;28;20056;-63
2023/07/05 09:31:36;;;;;;;14.10;2.58;;;11.80;99.90;;;;;;5013644;28;20460;-62
2023/07/05 09:34:27;;;;;;;11.48;2.30;;;11.90;99.90;;;;;;5047196;28;20134;-63
2023/07/05 09:36:53;;;;;;;12.32;2.65;;;11.90;99.90;;;;;;5009369;28;20111;-62
2023/07/05 09:39:32;;;;;;;12.18;2.80;;;11.90;99.90;;;;;;5025542;28;20129;-63
2023/07/05 09:42:03;;;;;;;11.10;2.47;;;11.90;99.90;;;;;;5004479;28;20049;-62
2023/07/05 09:44:31;;;;;;;12.30;2.65;;;11.90;99.90;;;;;;5002620;28;20103;-63
2023/07/05 09:46:56;;;;;;;9.50;2.30;;;12.00;99.90;;;;;;4994302;28;20064;-62
2023/07/05 09:49:22;;;;;;;9.27;2.20;;;12.00;99.90;;;;;;5005828;28;20062;-63
2023/07/05 09:51:48;;;;;;;13.15;2.75;;;11.90;99.90;;;;;;4995260;28;20424;-62
2023/07/05 09:54:22;;;;;;;10.60;1.95;;;12.00;99.90;;;;;;5005175;28;20053;-63
2023/07/05 09:57:17;;;;;;;10.30;1.90;;;12.00;99.90;;;;;;4994863;28;20049;-62
2023/07/05 09:59:43;;;;;;;10.20;1.92;;;12.00;99.90;;;;;;5049576;28;20033;-62
2023/07/05 10:02:12;;;;;;;5.85;1.73;;;12.00;99.90;;;;;;5054115;28;20054;-62
2023/07/05 10:04:49;;;;;;;13.15;2.53;;;12.10;99.90;;;;;;5080466;28;20123;-62
2023/07/05 10:07:29;;;;;;;8.35;3.15;;;12.10;99.90;;;;;;5048715;28;20056;-63
2023/07/05 10:09:55;;;;;;;8.80;1.98;;;12.10;99.90;;;;;;5053802;28;20365;-62
2023/07/05 10:12:26;;;;;;;12.77;2.42;;;12.20;99.90;;;;;;5058061;28;20528;-63
2023/07/05 10:14:56;;;;;;;9.70;2.72;;;12.30;99.90;;;;;;5132678;27;20378;-63
2023/07/05 10:17:21;;;;;;;8.02;2.03;;;12.30;99.90;;;;;;5120318;27;20114;-62
2023/07/05 10:19:50;;;;;;;10.52;2.95;;;12.30;99.90;;;;;;5123602;27;20142;-63
2023/07/05 10:22:30;;;;;;;10.65;1.90;;;12.30;99.90;;;;;;5135310;27;20035;-63
2023/07/05 10:24:58;;;;;;;14.38;3.05;;;12.30;99.90;;;;;;5152446;27;20121;-63
2023/07/05 10:27:32;;;;;;;9.60;2.60;;;12.30;99.90;;;;;;5127174;27;20042;-64
2023/07/05 10:30:12;;;;;;;9.85;2.63;;;12.30;99.90;;;;;;5134209;27;20112;-64
2023/07/05 10:32:42;;;;;;;11.07;2.15;;;12.30;99.90;;;;;;5123293;27;20055;-63
2023/07/05 10:35:26;;;;;;;8.20;2.33;;;12.30;99.90;;;;;;5115276;27;20121;-63
2023/07/05 10:37:53;;;;;;;8.48;2.00;;;12.30;99.90;;;;;;5140795;27;20123;-63
2023/07/05 10:40:21;;;;;;;9.43;2.10;;;12.30;99.90;;;;;;5113769;27;20534;-63
2023/07/05 10:42:51;;;;;;;6.63;1.83;;;12.30;99.90;;;;;;5130674;27;20038;-63
2023/07/05 10:45:20;;;;;;;11.60;2.10;;;12.30;99.90;;;;;;5137866;27;20110;-63
2023/07/05 10:47:48;;;;;;;8.50;1.80;;;12.30;99.90;;;;;;5123612;27;20508;-62
2023/07/05 10:50:15;;;;;;;10.00;2.10;;;12.30;99.90;;;;;;5114925;27;20039;-63
2023/07/05 10:52:59;;;;;;;7.40;2.42;;;12.30;99.90;;;;;;5142080;27;20109;-62
2023/07/05 10:55:39;;;;;;;7.75;2.80;;;12.30;99.90;;;;;;5117482;27;20098;-63
2023/07/05 10:58:15;;;;;;;7.60;2.83;;;12.20;99.90;;;;;;5143235;27;20499;-63
2023/07/05 11:00:48;;;;;;;8.10;2.08;;;12.20;99.90;;;;;;5124040;27;20039;-62
2023/07/05 11:03:30;;;;;;;7.10;1.80;;;12.20;99.90;;;;;;5115417;27;20111;-63
2023/07/05 11:05:58;;;;;;;3.58;1.50;;;12.10;99.90;;;;;;5119274;27;20091;-63
2023/07/05 11:08:28;;;;;;;4.88;1.48;;;12.10;99.90;;;;;;5115450;27;20118;-63
2023/07/05 11:10:58;;;;;;;3.58;1.40;;;12.10;99.90;;;;;;5128331;27;20552;-63
2023/07/05 11:13:24;;;;;;;2.72;1.40;;;12.00;99.90;;;;;;5131651;27;20126;-63
2023/07/05 11:15:50;;;;;;;6.32;1.33;;;11.90;99.90;;;;;;5124934;27;20039;-63
2023/07/05 11:18:19;;;;;;;5.90;1.35;;;11.90;99.90;;;;;;5121096;27;20354;-63
2023/07/05 11:20:46;;;;;;;8.38;1.98;;;11.80;99.90;;;;;;5142322;27;20035;-63
2023/07/05 11:23:33;;;;;;;6.18;1.60;;;11.80;99.90;;;;;;5137216;27;20070;-62
2023/07/05 11:26:00;;;;;;;5.40;1.80;;;11.80;99.90;;;;;;5124327;27;20055;-63
2023/07/05 11:28:41;;;;;;;7.55;1.98;;;11.80;99.90;;;;;;5115215;27;20043;-63
2023/07/05 11:31:30;;;;;;;6.97;2.00;;;11.80;99.90;;;;;;5145027;27;20461;-64
2023/07/05 11:34:20;;;;;;;4.32;1.63;;;11.80;99.90;;;;;;5128915;27;20078;-63
2023/07/05 11:36:48;;;;;;;9.52;2.30;;;11.90;99.90;;;;;;5123900;27;20074;-64
2023/07/05 11:39:33;;;;;;;8.30;2.10;;;11.90;99.90;;;;;;5124060;27;20035;-63
2023/07/05 11:42:24;;;;;;;7.32;1.98;;;11.90;99.90;;;;;;5114312;27;20031;-63
2023/07/05 11:45:15;;;;;;;10.20;2.20;;;11.90;99.90;;;;;;5141521;27;20054;-64
2023/07/05 11:47:46;;;;;;;8.38;1.95;;;11.90;99.90;;;;;;5126156;27;20381;-64
2023/07/05 11:50:13;;;;;;;8.02;2.63;;;12.00;99.90;;;;;;5127253;27;20041;-63
2023/07/05 11:52:55;;;;;;;9.35;2.20;;;12.00;99.90;;;;;;5124432;27;20117;-64
2023/07/05 11:55:25;;;;;;;8.13;2.50;;;12.10;99.90;;;;;;5126709;27;20531;-64
2023/07/05 11:58:20;;;;;;;9.38;2.40;;;12.10;99.90;;;;;;5122798;27;20037;-63
2023/07/05 12:00:58;;;;;;;13.18;2.35;;;12.20;99.90;;;;;;5133645;27;20027;-63
2023/07/05 12:03:37;;;;;;;14.55;2.55;;;12.20;99.90;;;;;;5142427;27;20043;-63
2023/07/05 12:06:18;;;;;;;10.00;2.50;;;12.30;99.90;;;;;;5118571;27;20039;-63
2023/07/05 12:08:48;;;;;;;8.60;2.55;;;12.30;99.90;;;;;;5146675;27;20148;-63
2023/07/05 12:11:30;;;;;;;7.97;2.83;;;12.50;99.90;;;;;;5132360;27;20110;-62
2023/07/05 12:14:09;;;;;;;9.10;2.90;;;12.50;99.90;;;;;;5143800;27;20046;-63
2023/07/05 12:16:35;;;;;;;6.13;2.20;;;12.60;99.90;;;;;;5125719;27;20489;-63
2023/07/05 12:19:02;;;;;;;9.40;2.42;;;12.60;99.90;;;;;;5146269;27;20038;-63
2023/07/05 12:21:32;;;;;;;10.60;2.63;;;12.60;99.90;;;;;;5121621;27;20041;-64
2023/07/05 12:23:58;;;;;;;9.05;2.15;;;12.70;99.90;;;;;;5113303;27;20031;-63
2023/07/05 12:26:29;;;;;;;8.35;2.03;;;12.70;99.90;;;;;;5116136;27;20578;-63
2023/07/05 12:28:55;;;;;;;5.13;2.00;;;12.70;99.90;;;;;;5128100;27;20042;-63
2023/07/05 12:31:22;;;;;;;10.88;2.25;;;12.70;99.90;;;;;;5115146;27;20118;-64
2023/07/05 12:33:57;;;;;;;8.73;2.25;;;12.80;99.90;;;;;;5137423;27;20038;-63
2023/07/05 12:36:23;;;;;;;11.15;2.30;;;12.80;99.90;;;;;;5137545;27;20519;-63
2023/07/05 12:39:13;;;;;;;12.68;2.42;;;12.80;99.90;;;;;;5123572;27;20041;-63
2023/07/05 12:41:39;;;;;;;11.75;2.58;;;12.90;99.90;;;;;;5132339;27;20042;-63
2023/07/05 12:44:09;;;;;;;14.50;3.15;;;12.90;99.90;;;;;;5148434;27;20038;-64
2023/07/05 12:46:36;;;;;;;13.40;3.85;;;12.90;99.90;;;;;;5127340;27;20468;-64
2023/07/05 12:49:18;;;;;;;11.70;2.90;;;13.00;99.90;;;;;;5115435;27;20058;-63
2023/07/05 12:51:55;;;;;;;13.52;2.80;;;13.10;99.90;;;;;;5126056;27;20042;-63
2023/07/05 12:54:22;;;;;;;12.60;3.13;;;13.20;99.90;;;;;;5103988;27;20035;-63
2023/07/05 12:56:50;;;;;;;9.27;3.00;;;13.30;99.90;;;;;;5135085;27;20031;-63
2023/07/05 12:59:33;;;;;;;10.55;2.63;;;13.40;99.90;;;;;;5120568;27;20039;-64